Immagine casuale
Testata Regione Lazio ARSIAL SIARL

Ultima Misura Rilevata

Temperatura, Umidità, Pioggia, Pressione Radiazione Solare, Venti, Evapotraspirazione, ecc.
Temperature diurne e notturne Direzione vento Legenda
Prov Stazione Data TMin TMed TMax UMed Pioggia PMed
FR ALATRI Basciano 19/11/2018 5 7,3 12,4 78 38,6 1.002
FR ALVITO Az. Ist. S. Benedetto 19/11/2018 0,4 6,3 12 94 58,8 1.007
FR ANAGNI La Gloria 19/11/2018 4 7,1 10,8 93 29 1.007
FR ARPINO Vigne Piane 19/11/2018 4,4 7,5 11,6 87 70,2 1.002
FR BOVILLE ERNICA Sasso 19/11/2018 4,9 7,7 12,1 88 40 1.006
FR ESPERIA Modale 19/11/2018 2,1 7,6 17,7 94 115,4 1.001
FR PASTENA Acero 19/11/2018 -0,8 6,7 16,3 93 87 1.002
FR PIGLIO Civitella 19/11/2018 3,5 7,1 10,9 92 31,4 1.007
FR PONTECORVO Melfi di Sotto 19/11/2018 1,3 6,6 14,1 96 96 ----
FR S. ELIA FIUMERAPIDO Portella 19/11/2018 3,5 8,1 12,6 89 99,4 1.005
FR S. GIORGIO A LIRI Porto 19/11/2018 0,9 6,8 16,4 97 145,6 1.000
FR SGURGOLA Campo Lungo 19/11/2018 N.D. N.D. N.D. N.D. N.D. ----
FR VALLECORSA Serbatoio comunale 19/11/2018 4,3 7 14,9 89 57,8 1.007
LT APRILIA Le Ferriere 19/11/2018 6,8 10,7 16,3 91 17 1.004
LT CISTERNA B.go Carso 19/11/2018 6,2 10,2 14,7 96 27,9 ----
LT CISTERNA Doganella di Ninfa 19/11/2018 6,9 10,5 15,1 94 13,6 1.003
LT CORI Portone 19/11/2018 7,2 10,7 15,4 90 26,8 1.005
LT FONDI Capratica 19/11/2018 4,7 10,4 18,8 90 57 1.004
LT FORMIA Loc. Gianola 19/11/2018 4,2 10,6 18,5 80 64,4 ----
LT ITRI Valle Quercia 19/11/2018 7,4 11,4 16,6 76 52,8 1.002
LT MAENZA Casacotta 19/11/2018 7,5 10 14,8 86 31,4 998
LT MINTURNO Pulcherini 19/11/2018 7,1 10 17,1 82 68,6 1.005
LT PONTINIA Cotarda 19/11/2018 9,4 11,8 16,5 75 22 1.001
LT SABAUDIA Acquaviva 19/11/2018 8,3 11 17,8 83 22 1.002
LT SONNINO Frasso 19/11/2018 8,2 12,5 17,6 75 33 1.003
RI ACCUMOLI Terracino 19/11/2018 -1,5 0,5 5,3 100 11 1.008
RI BORGOVELINO Ponte Basso 19/11/2018 4,9 6,6 9,3 77 13,2 1.000
RI CANTALUPO S. Francesco 19/11/2018 2,4 5,9 11,2 91 6 ----
RI CASTEL DI TORA Monte di Tora 19/11/2018 2,9 6,4 10,6 84 14,4 1.000
RI CASTELNUOVO FARFA C. Spadone 19/11/2018 4,2 8,1 13,6 90 6,8 ----
RI CONFIGNI Portella 19/11/2018 N.D. N.D. N.D. N.D. N.D. N.D.
RI FARA SABINA Canneto 19/11/2018 3,8 7,7 12,7 86 9,6 1.002
RI FARA SABINA Sant'Andrea 19/11/2018 3,7 7 12,6 92 9,4 ----
RI MONTELEONE S. Prato Camino 19/11/2018 3 7,6 12,2 86 11 1.003
RI MONTOPOLI IN SABINA Colle Arcone 19/11/2018 3,9 5,8 11,9 99 3,2 ----
RI MONTOPOLI IN SABINA Villa Caprola 19/11/2018 5 6,9 8,6 99 5,6 ----
RI POGGIO CATINO Pastine 19/11/2018 3,5 6,7 13,3 99 5,6 ----
RI POGGIO NATIVO Casali 19/11/2018 5,2 7,7 12,8 89 13,9 ----
RI RIETI Piana di Rieti 19/11/2018 -1,1 3,2 6,2 91 10,5 1.007
RI SCANDRIGLIA Ponticelli 19/11/2018 4,1 8,3 13,9 91 14,1 ----
RM AGOSTA La Cisterna 19/11/2018 2,3 5,8 11,2 95 13,4 1.001
RM BRACCIANO Prato Pianciano 19/11/2018 4,6 7,9 11,2 89 8,2 997
RM CANALE MONTERANO Monte Virginio 19/11/2018 2,1 6,2 10,4 91 10,8 999
RM CERVETERI Campo di Mare 19/11/2018 8,1 10,2 16,2 71 10,9 ----
RM CIVITELLA S.PAOLO Le Cese 19/11/2018 3,6 5,6 10 92 8,4 1.000
RM FIUMICINO Maccarese 19/11/2018 5,5 8,5 16,2 89 21,2 1.003
RM FIUMICINO Testa di Lepre 19/11/2018 6,2 7,8 13,9 86 12,8 ----
RM FORMELLO Perazzeta 19/11/2018 5,4 8 10,5 85 9 ----
RM FRASCATI Prata Porci 19/11/2018 2,3 9 15,3 90 11,2 1.004
RM GENAZZANO Coop. La Sonnina 19/11/2018 4,2 7,2 12 89 36,6 1.005
RM GROTTAFERRATA Valle Marciana 19/11/2018 3,7 9,3 15 82 9,6 1.003
RM LICENZA Colle Franco 19/11/2018 3,1 6,6 10,6 88 23,2 1.002
RM MARCELLINA V. Campetella 19/11/2018 3,8 7,6 13,4 92 10,2 ----
RM MARINO Gotto d'Oro 19/11/2018 3,7 8,8 14,4 99 8 1.006
RM MONTECOMPATRI Colle Mattia 19/11/2018 3,7 9,4 15,6 79 9 1.005
RM MONTECOMPATRI Pantano Borghese 19/11/2018 3,6 8,7 15,4 87 12 1.000
RM MONTELIBRETTI Bruciati 19/11/2018 1,8 7 13,4 93 12,5 ----
RM MONTEPORZIO Camaldoli 19/11/2018 4 6,4 12,2 91 8 1.005
RM MONTEROTONDO Grotta Marozza 19/11/2018 4,1 6,7 13,4 90 9,4 1.004
RM PALOMBARA Fonte Grande 19/11/2018 N.D. N.D. N.D. 89 11,2 ----
RM ROMA Capocotta 19/11/2018 5,3 9,2 16,9 92 7,3 ----
RM ROMA Ponte di Nona 19/11/2018 5,1 8,6 14,5 92 8,4 1.006
RM ROMA Via Lanciani 38 19/11/2018 6,8 8,5 14,1 89 7,9 1.003
RM S. GREGORIO C. Faustiniano 19/11/2018 4,3 8,2 12,7 86 14,4 1.001
RM VELLETRI Cantina Sperimentale 19/11/2018 7 8,9 12,6 86 17,6 1.000
RM VELLETRI Prato Lungo 19/11/2018 8 10,5 15,3 81 14,6 ----
RM ZAGAROLO Santa Apollara 19/11/2018 6,2 8,4 13,5 84 19,8 ----
VT ACQUAPENDENTE Falconiera 19/11/2018 -1,9 3,8 7,2 88 11,8 1.001
VT BAGNOREGIO Castell Cellesi 19/11/2018 2,4 5 7 84 6,2 ----
VT BASSANO R. Piano Mola 19/11/2018 3,9 6,3 9,7 87 10,2 999
VT BLERA Puntoni 19/11/2018 1,7 6,7 11,6 91 16,4 1.003
VT BOLSENA Capone 19/11/2018 3 6,5 10,6 78 9,2 998
VT BOLSENA Rentica 19/11/2018 3,1 6,2 9,6 75 8,9 ----
VT CANINO Diga Timone 19/11/2018 4,3 7,9 11,2 80 15 1.002
VT CANINO Pianacce 19/11/2018 3 8,2 11,6 76 13,6 1.004
VT CANINO San Valeriano 19/11/2018 4 7,4 10,7 80 14,1 ----
VT CELLENO Acquaforte 19/11/2018 2,2 5,4 7,5 92 7,5 ----
VT CORCHIANO Pantalone 19/11/2018 3,5 6,3 8,4 88 10,6 1.001
VT FARNESE Gressa 19/11/2018 2,7 6,2 10 71 13,1 ----
VT FARNESE Pian di Sala 19/11/2018 1,3 5,4 9,7 85 12,3 ----
VT GROTTE DI CASTRO Borghetto 19/11/2018 2 6 9,6 81 14,4 1.006
VT GROTTE DI CASTRO Purgatorio 19/11/2018 -1,5 4 7,8 90 12,6 1.007
VT LATERA Centro Florovivaistico 19/11/2018 2,4 6 11 86 13,2 1.002
VT MONTALTO Le Murelle 19/11/2018 5 8,6 11,5 78 13,8 1.021
VT MONTALTO Pescia Romana 19/11/2018 1 7,7 12,1 81 12,3 1.004
VT MONTEFIASCONE Commenda 19/11/2018 2,8 6,2 8,2 88 9 ----
VT RONCIGLIONE Ponterotto 19/11/2018 2,6 6,1 8,2 84 N.D. ----
VT SORIANO CIMINO Pantane 19/11/2018 1,2 4,9 8 94 4,8 1.000
VT SORIANO CIMINO Poggio di Chia 19/11/2018 2,1 5,4 7,8 92 5,8 ----
VT TARQUINIA Portaccia 19/11/2018 6,7 9,1 11,3 79 9 ----
VT TUSCANIA Montebello 19/11/2018 4,1 6,8 9 85 7,4 ----
VT VETRALLA Marchionato 19/11/2018 1,1 6,2 11,2 99 6,2 ----
VT VITERBO Pisello 19/11/2018 2,9 6,2 8,1 87 6,8 ----
N.D. = Dati Non Disponibili
---- = Sensore non presente

Le misure esposte sono grezze, ovvero non sono state validate